Time;durP1;ratioP1;P1;durP2;ratioP2;P2;SDS_P1;SDS_P2;PMS_P1;PMS_P2;Temp;Humidity;BMP_temperature;BMP_pressure;BME280_temperature;BME280_humidity;BME280_pressure;Samples;Min_cycle;Max_cycle;Signal;HPM_P1;HPM_P2
2022/12/08 00:01:22;;;;;;;12.67;8.20;;;;;;;0.43;100.00;97792.22;5133657;27;20212;-90
2022/12/08 00:03:50;;;;;;;13.47;8.93;;;;;;;0.53;100.00;97797.97;5133787;27;20208;-89
2022/12/08 00:09:22;;;;;;;12.57;8.77;;;;;;;0.63;100.00;97789.78;5133798;27;20203;-90
2022/12/08 00:11:54;;;;;;;13.40;8.60;;;;;;;0.73;100.00;97785.94;5133590;27;20293;-89
2022/12/08 00:14:24;;;;;;;14.80;8.87;;;;;;;0.78;100.00;97788.38;5134293;27;20215;-90
2022/12/08 00:16:50;;;;;;;13.77;8.77;;;;;;;0.85;100.00;97789.84;5133591;27;20249;-90
2022/12/08 00:19:17;;;;;;;14.30;8.50;;;;;;;0.91;100.00;97784.41;5134009;27;20216;-90
2022/12/08 00:21:43;;;;;;;12.00;8.37;;;;;;;0.96;100.00;97783.38;5133806;27;20205;-89
2022/12/08 00:24:11;;;;;;;12.37;7.97;;;;;;;1.02;100.00;97774.47;5133813;27;20468;-90
2022/12/08 00:26:38;;;;;;;15.68;10.75;;;;;;;1.15;100.00;97780.91;5133774;27;20437;-87
2022/12/08 00:29:05;;;;;;;11.93;8.40;;;;;;;1.16;100.00;97778.25;5135033;27;20205;-87
2022/12/08 00:31:32;;;;;;;11.90;7.53;;;;;;;1.11;100.00;97776.75;5135024;27;20233;-86
2022/12/08 00:33:59;;;;;;;13.90;9.07;;;;;;;1.12;100.00;97778.44;5134728;27;20205;-86
2022/12/08 00:36:26;;;;;;;14.47;9.33;;;;;;;1.13;100.00;97770.59;5134558;27;20237;-86
2022/12/08 00:38:52;;;;;;;14.37;8.73;;;;;;;1.11;100.00;97771.53;5134372;27;20300;-86
2022/12/08 00:42:10;;;;;;;12.20;8.43;;;;;;;1.04;100.00;97763.09;5134644;27;20206;-87
2022/12/08 00:44:11;;;;;;;12.73;8.03;;;;;;;1.02;100.00;97762.31;5134578;27;20233;-87
2022/12/08 00:46:38;;;;;;;14.57;9.00;;;;;;;0.94;100.00;97759.16;5134593;27;20225;-85
2022/12/08 00:49:05;;;;;;;14.33;9.27;;;;;;;0.97;100.00;97764.25;5134033;27;20711;-87
2022/12/08 00:51:32;;;;;;;13.53;8.50;;;;;;;0.89;100.00;97763.69;5134192;27;20229;-87
2022/12/08 00:53:59;;;;;;;12.13;7.63;;;;;;;0.78;100.00;97758.03;5134524;27;20208;-86
2022/12/08 00:56:27;;;;;;;12.03;7.97;;;;;;;0.73;100.00;97761.69;5134405;27;20227;-86
2022/12/08 00:58:54;;;;;;;13.53;8.23;;;;;;;0.71;100.00;97766.97;5134251;27;20205;-85
2022/12/08 01:01:20;;;;;;;12.93;8.40;;;;;;;0.67;100.00;97754.97;5134599;27;20201;-86
2022/12/08 01:03:47;;;;;;;14.40;8.93;;;;;;;0.61;100.00;97765.59;5134038;27;20213;-85
2022/12/08 01:06:14;;;;;;;11.53;8.07;;;;;;;0.55;100.00;97752.81;5134196;27;20603;-86
2022/12/08 01:08:41;;;;;;;16.07;9.33;;;;;;;0.49;100.00;97752.19;5134234;27;20301;-85
2022/12/08 01:11:09;;;;;;;13.43;8.90;;;;;;;0.45;100.00;97748.00;5133929;27;20233;-85
2022/12/08 01:13:38;;;;;;;15.43;9.50;;;;;;;0.38;100.00;97747.34;5134407;27;20220;-85
2022/12/08 01:16:05;;;;;;;12.73;8.87;;;;;;;0.31;100.00;97751.06;5133816;27;20248;-85
2022/12/08 01:18:32;;;;;;;14.13;9.50;;;;;;;0.30;100.00;97749.38;5133854;27;20214;-87
2022/12/08 01:21:02;;;;;;;12.87;9.37;;;;;;;0.33;100.00;97759.66;5133584;27;20213;-87
2022/12/08 01:23:28;;;;;;;14.10;9.33;;;;;;;0.31;100.00;97755.44;5134037;27;20202;-85
2022/12/08 01:25:55;;;;;;;12.57;9.07;;;;;;;0.27;100.00;97759.91;5133736;27;20719;-87
2022/12/08 01:28:21;;;;;;;13.37;8.73;;;;;;;0.21;100.00;97759.25;5133768;27;20201;-87
2022/12/08 01:30:49;;;;;;;13.90;9.20;;;;;;;0.17;100.00;97757.63;5133429;27;20206;-87
2022/12/08 01:33:16;;;;;;;12.77;8.23;;;;;;;0.09;100.00;97755.34;5133564;27;20225;-85
2022/12/08 01:35:42;;;;;;;12.73;8.90;;;;;;;0.06;100.00;97759.75;5133952;27;20637;-85
2022/12/08 01:38:09;;;;;;;16.83;8.93;;;;;;;-0.01;100.00;97759.13;5133797;27;20205;-85
2022/12/08 01:40:35;;;;;;;13.97;8.60;;;;;;;-0.03;100.00;97757.47;5133282;27;20699;-87
2022/12/08 01:43:02;;;;;;;12.50;8.03;;;;;;;-0.03;100.00;97757.47;5133499;27;20205;-86
2022/12/08 01:45:30;;;;;;;13.67;8.73;;;;;;;-0.02;100.00;97752.25;5133286;27;20222;-85
2022/12/08 01:48:00;;;;;;;14.57;8.67;;;;;;;-0.01;100.00;97748.72;5133263;27;20219;-85
2022/12/08 01:50:28;;;;;;;15.03;9.50;;;;;;;0.03;100.00;97745.16;5133063;27;20205;-86
2022/12/08 01:52:59;;;;;;;14.63;8.57;;;;;;;0.09;100.00;97744.06;5133809;27;20229;-86
2022/12/08 01:55:31;;;;;;;12.43;8.53;;;;;;;0.11;100.00;97745.72;5134762;27;20205;-85
2022/12/08 01:58:02;;;;;;;15.97;8.90;;;;;;;0.11;100.00;97735.31;5134752;27;20209;-85
2022/12/08 02:00:29;;;;;;;12.40;7.70;;;;;;;0.08;100.00;97737.19;5132954;27;20232;-87
2022/12/08 02:03:00;;;;;;;11.63;8.10;;;;;;;-0.01;100.00;97727.97;5133051;27;20580;-85
2022/12/08 02:05:29;;;;;;;11.47;7.70;;;;;;;-0.13;100.00;97730.09;5132813;27;20239;-87
2022/12/08 02:07:58;;;;;;;10.83;7.30;;;;;;;-0.25;100.00;97729.69;5133108;27;20576;-87
2022/12/08 02:10:29;;;;;;;13.30;8.73;;;;;;;-0.28;100.00;97721.06;5132721;27;20205;-87
2022/12/08 02:12:58;;;;;;;12.70;8.10;;;;;;;-0.29;100.00;97715.09;5132809;27;20729;-87
2022/12/08 02:15:31;;;;;;;13.73;8.77;;;;;;;-0.26;100.00;97712.41;5132738;27;20251;-87
2022/12/08 02:18:10;;;;;;;14.13;8.73;;;;;;;-0.33;100.00;97713.53;5132637;27;20212;-87
2022/12/08 02:20:54;;;;;;;12.53;7.77;;;;;;;-0.44;100.00;97720.81;5132851;27;20205;-80
2022/12/08 02:23:32;;;;;;;11.83;7.90;;;;;;;-0.58;100.00;97713.44;5133019;27;20217;-86
2022/12/08 02:26:35;;;;;;;14.47;8.83;;;;;;;-0.62;100.00;97711.00;5132881;27;20316;-86
2022/12/08 02:29:21;;;;;;;12.23;8.37;;;;;;;-0.66;100.00;97719.78;5132778;27;20215;-86
2022/12/08 02:32:05;;;;;;;11.70;7.50;;;;;;;-0.73;100.00;97710.50;5132772;27;20225;-87
2022/12/08 02:34:40;;;;;;;12.77;8.20;;;;;;;-0.70;100.00;97715.56;5132568;27;20201;-86
2022/12/08 02:37:13;;;;;;;16.43;8.80;;;;;;;-0.75;100.00;97714.91;5132577;27;20304;-89
2022/12/08 02:39:45;;;;;;;14.00;8.30;;;;;;;-0.71;100.00;97706.97;5132338;27;20213;-89
2022/12/08 02:42:21;;;;;;;12.07;7.93;;;;;;;-0.75;100.00;97714.91;5132986;27;20250;-89
2022/12/08 02:44:55;;;;;;;13.10;7.63;;;;;;;-0.80;100.00;97715.00;5132678;27;20209;-88
2022/12/08 02:47:24;;;;;;;11.63;7.43;;;;;;;-0.82;100.00;97708.19;5132495;27;20232;-89
2022/12/08 02:49:54;;;;;;;12.67;8.33;;;;;;;-0.82;100.00;97708.19;5132373;27;20222;-89
2022/12/08 02:52:41;;;;;;;14.07;8.63;;;;;;;-0.81;100.00;97709.91;5132235;28;20276;-89
2022/12/08 02:55:16;;;;;;;14.47;8.63;;;;;;;-0.77;100.00;97701.09;5132463;28;20211;-89
2022/12/08 02:57:53;;;;;;;12.60;8.10;;;;;;;-0.78;100.00;97699.41;5132325;28;20222;-91
2022/12/08 03:00:22;;;;;;;13.37;7.63;;;;;;;-0.81;100.00;97704.72;5132333;28;20181;-90
2022/12/08 03:03:02;;;;;;;16.20;8.77;;;;;;;-0.84;100.00;97699.59;5132392;28;20213;-85
2022/12/08 03:05:43;;;;;;;13.33;8.40;;;;;;;-0.89;100.00;97701.47;5132409;28;20232;-81
2022/12/08 03:08:16;;;;;;;14.57;8.77;;;;;;;-0.72;100.00;97699.22;5132146;27;20212;-86
2022/12/08 03:10:46;;;;;;;14.20;7.37;;;;;;;-0.83;100.00;97690.91;5132080;27;20219;-85
2022/12/08 03:13:15;;;;;;;12.77;7.60;;;;;;;-0.90;100.00;97685.09;5132010;28;20577;-83
2022/12/08 03:15:45;;;;;;;12.13;7.57;;;;;;;-0.93;100.00;97684.34;5132292;28;20224;-85
2022/12/08 03:18:15;;;;;;;13.13;7.50;;;;;;;-0.90;100.00;97685.09;5132128;28;20208;-83
2022/12/08 03:20:44;;;;;;;12.83;7.90;;;;;;;-0.90;100.00;97679.03;5131824;28;20206;-85
2022/12/08 03:23:14;;;;;;;11.10;6.90;;;;;;;-0.93;100.00;97681.75;5132083;28;20315;-86
2022/12/08 03:25:47;;;;;;;13.33;7.60;;;;;;;-0.95;100.00;97680.94;5131940;28;20282;-85
2022/12/08 03:28:14;;;;;;;13.37;8.13;;;;;;;-0.94;100.00;97678.28;5132508;27;20219;-85
2022/12/08 03:30:46;;;;;;;14.20;8.53;;;;;;;-1.03;100.00;97670.81;5133567;27;20220;-83
2022/12/08 03:33:18;;;;;;;14.23;8.87;;;;;;;-1.02;100.00;97669.91;5136111;27;20672;-85
2022/12/08 03:35:46;;;;;;;14.10;8.07;;;;;;;-1.06;100.00;97667.47;5135937;27;20242;-84
2022/12/08 03:38:15;;;;;;;12.73;8.63;;;;;;;-1.04;100.00;97676.88;5135817;27;20205;-84
2022/12/08 03:40:43;;;;;;;14.20;8.77;;;;;;;-0.98;100.00;97671.50;5135588;27;20204;-84
2022/12/08 03:43:10;;;;;;;14.03;9.43;;;;;;;-0.92;100.00;97673.06;5135945;27;20214;-84
2022/12/08 03:45:36;;;;;;;14.70;9.07;;;;;;;-0.95;100.00;97665.38;5136046;27;20221;-85
2022/12/08 03:48:03;;;;;;;15.50;9.03;;;;;;;-1.06;100.00;97651.91;5135787;27;20566;-84
2022/12/08 03:50:29;;;;;;;14.63;8.33;;;;;;;-1.05;100.00;97658.78;5135526;27;20215;-84
2022/12/08 03:52:57;;;;;;;14.30;8.50;;;;;;;-1.00;100.00;97659.50;5135454;27;20233;-84
2022/12/08 03:55:24;;;;;;;14.17;8.37;;;;;;;-1.07;100.00;97650.19;5135604;27;20474;-84
2022/12/08 03:57:50;;;;;;;16.20;8.63;;;;;;;-1.08;100.00;97641.59;5135585;27;20581;-84
2022/12/08 04:00:17;;;;;;;12.87;8.10;;;;;;;-1.11;100.00;97644.25;5135062;27;20215;-84
2022/12/08 04:02:44;;;;;;;11.97;7.70;;;;;;;-1.16;100.00;97637.53;5135198;27;20231;-84
2022/12/08 04:05:10;;;;;;;14.47;9.00;;;;;;;-1.17;100.00;97643.63;5134973;27;20220;-83
2022/12/08 04:07:37;;;;;;;13.17;8.37;;;;;;;-1.15;100.00;97641.81;5135083;27;20543;-85
2022/12/08 04:10:06;;;;;;;15.33;8.97;;;;;;;-1.09;100.00;97634.72;5134785;27;20668;-84
2022/12/08 04:12:33;;;;;;;14.47;8.53;;;;;;;-1.10;100.00;97637.34;5135051;27;20229;-83
2022/12/08 04:14:59;;;;;;;13.83;9.23;;;;;;;-1.08;100.00;97638.13;5135007;27;20209;-83
2022/12/08 04:17:26;;;;;;;12.03;7.70;;;;;;;-1.13;100.00;97635.69;5134883;27;20247;-83
2022/12/08 04:19:52;;;;;;;13.57;7.83;;;;;;;-1.25;100.00;97640.38;5134413;27;20210;-83
2022/12/08 04:22:19;;;;;;;12.80;8.07;;;;;;;-1.23;100.00;97636.84;5135123;27;20568;-84
2022/12/08 04:24:45;;;;;;;13.60;7.83;;;;;;;-1.30;100.00;97637.13;5134885;27;20481;-84
2022/12/08 04:27:13;;;;;;;14.83;8.67;;;;;;;-1.37;100.00;97626.06;5134585;27;20723;-84
2022/12/08 04:29:39;;;;;;;15.43;9.17;;;;;;;-1.32;100.00;97633.69;5134530;27;20671;-84
2022/12/08 04:32:06;;;;;;;12.13;7.90;;;;;;;-1.35;100.00;97629.44;5134589;27;20231;-84
2022/12/08 04:34:32;;;;;;;13.47;7.60;;;;;;;-1.38;100.00;97626.09;5134396;27;20212;-84
2022/12/08 04:36:59;;;;;;;14.47;8.07;;;;;;;-1.39;100.00;97643.41;5134521;27;20225;-84
2022/12/08 04:39:25;;;;;;;13.60;8.67;;;;;;;-1.37;100.00;97630.41;5134344;27;20601;-84
2022/12/08 04:41:52;;;;;;;11.93;7.40;;;;;;;-1.38;100.00;97628.69;5134073;27;20209;-84
2022/12/08 04:44:20;;;;;;;13.03;7.87;;;;;;;-1.37;100.00;97625.22;5134763;27;20204;-84
2022/12/08 04:46:46;;;;;;;13.20;7.93;;;;;;;-1.37;100.00;97625.22;5134449;27;20225;-86
2022/12/08 04:49:13;;;;;;;13.33;8.40;;;;;;;-1.32;100.00;97620.75;5134136;27;20632;-84
2022/12/08 04:51:39;;;;;;;11.87;7.40;;;;;;;-1.34;100.00;97622.53;5134525;27;20628;-84
2022/12/08 04:54:06;;;;;;;16.87;8.90;;;;;;;-1.29;100.00;97618.06;5134418;27;20606;-84
2022/12/08 04:56:32;;;;;;;14.37;9.13;;;;;;;-1.25;100.00;97617.06;5134339;27;20237;-84
2022/12/08 04:58:59;;;;;;;14.23;8.53;;;;;;;-1.21;100.00;97614.34;5134236;27;20679;-84
2022/12/08 05:01:27;;;;;;;12.70;8.33;;;;;;;-1.25;100.00;97619.66;5134049;27;20212;-84
2022/12/08 05:03:53;;;;;;;13.43;8.30;;;;;;;-1.28;100.00;97604.22;5134430;27;20200;-84
2022/12/08 05:06:20;;;;;;;13.00;8.10;;;;;;;-1.26;100.00;97607.59;5139524;22;20726;-77
2022/12/08 05:08:46;;;;;;;13.77;8.40;;;;;;;-1.20;100.00;97607.41;5092672;28;20206;-77
2022/12/08 05:11:13;;;;;;;14.80;8.50;;;;;;;-1.21;100.00;97614.34;5092982;28;20213;-77
2022/12/08 05:13:40;;;;;;;16.83;9.50;;;;;;;-1.31;100.00;97607.75;5092926;28;20232;-77
2022/12/08 05:16:09;;;;;;;26.63;10.63;;;;;;;-1.38;100.00;97606.25;5092728;28;20226;-77
2022/12/08 05:18:38;;;;;;;15.60;9.60;;;;;;;-1.41;100.00;97597.72;5092892;28;20207;-76
2022/12/08 05:21:05;;;;;;;14.73;9.27;;;;;;;-1.41;100.00;97598.53;5092715;28;20205;-77
2022/12/08 05:23:32;;;;;;;13.53;8.40;;;;;;;-1.40;100.00;97596.81;5092938;28;20202;-77
2022/12/08 05:25:59;;;;;;;15.23;9.60;;;;;;;-1.43;100.00;97597.75;5093153;28;20261;-77
2022/12/08 05:28:26;;;;;;;18.00;10.47;;;;;;;-1.42;100.00;97601.19;5092637;28;20203;-77
2022/12/08 05:30:52;;;;;;;18.40;10.43;;;;;;;-1.44;100.00;97603.84;5092345;28;20630;-78
2022/12/08 05:33:19;;;;;;;18.57;10.80;;;;;;;-1.39;100.00;97611.47;5092438;28;20720;-77
2022/12/08 05:35:47;;;;;;;17.50;10.07;;;;;;;-1.39;100.00;97601.97;5092401;28;20209;-77
2022/12/08 05:38:13;;;;;;;16.70;8.63;;;;;;;-1.35;100.00;97613.06;5092517;28;20211;-79
2022/12/08 05:40:42;;;;;;;16.30;9.73;;;;;;;-1.32;100.00;97610.38;5092271;28;20206;-77
2022/12/08 05:43:09;;;;;;;19.97;10.47;;;;;;;-1.35;100.00;97608.72;5092416;28;20233;-77
2022/12/08 05:45:36;;;;;;;15.53;9.90;;;;;;;-1.35;100.00;97602.72;5092552;28;20215;-79
2022/12/08 05:48:02;;;;;;;18.33;9.80;;;;;;;-1.29;100.00;97607.69;5092470;28;20210;-79
2022/12/08 05:50:29;;;;;;;16.73;9.97;;;;;;;-1.28;100.00;97611.97;5092052;28;20433;-77
2022/12/08 05:52:57;;;;;;;19.70;10.93;;;;;;;-1.27;100.00;97605.91;5091682;28;20229;-77
2022/12/08 05:55:23;;;;;;;18.23;11.50;;;;;;;-1.22;100.00;97606.59;5092194;28;20219;-77
2022/12/08 05:57:50;;;;;;;15.67;9.47;;;;;;;-1.24;100.00;97598.03;5092018;28;20233;-77
2022/12/08 06:00:17;;;;;;;19.27;10.33;;;;;;;-1.26;100.00;97602.41;5092201;28;20210;-77
2022/12/08 06:02:44;;;;;;;18.53;11.03;;;;;;;-1.28;100.00;97597.28;5092672;28;20279;-76
2022/12/08 06:05:10;;;;;;;18.83;10.37;;;;;;;-1.26;100.00;97594.63;5093264;28;20296;-76
2022/12/08 06:07:37;;;;;;;19.87;11.27;;;;;;;-1.25;100.00;97599.78;5113069;28;20251;-79
2022/12/08 06:10:07;;;;;;;18.10;9.97;;;;;;;-1.28;100.00;97606.81;5110885;28;20210;-77
2022/12/08 06:12:33;;;;;;;16.90;10.63;;;;;;;-1.26;100.00;97600.69;5111678;28;20244;-77
2022/12/08 06:14:59;;;;;;;17.27;9.67;;;;;;;-1.30;100.00;97598.25;5110693;28;20199;-77
2022/12/08 06:17:26;;;;;;;17.83;11.00;;;;;;;-1.31;100.00;97594.78;5115324;28;20247;-77
2022/12/08 06:19:52;;;;;;;19.43;11.33;;;;;;;-1.33;100.00;97595.72;5102079;28;20221;-77
2022/12/08 06:22:19;;;;;;;19.37;11.60;;;;;;;-1.34;100.00;97596.63;5091715;28;20211;-77
2022/12/08 06:24:46;;;;;;;14.37;9.73;;;;;;;-1.35;100.00;97594.94;5091491;28;20211;-77
2022/12/08 06:27:13;;;;;;;20.70;11.40;;;;;;;-1.43;100.00;97589.97;5091458;28;20241;-77
2022/12/08 06:29:40;;;;;;;20.83;11.10;;;;;;;-1.37;100.00;97599.28;5091321;28;20565;-77
2022/12/08 06:32:06;;;;;;;18.97;10.57;;;;;;;-1.39;100.00;97595.91;5091773;28;20213;-77
2022/12/08 06:34:33;;;;;;;19.43;11.63;;;;;;;-1.39;100.00;97596.78;5091554;28;20615;-77
2022/12/08 06:36:59;;;;;;;18.40;10.30;;;;;;;-1.33;100.00;97595.72;5091360;28;20244;-77
2022/12/08 06:39:26;;;;;;;20.50;12.03;;;;;;;-1.37;100.00;97599.28;5091150;28;20230;-77
2022/12/08 06:44:38;;;;;;;20.90;11.77;;;;;;;-1.31;100.00;97599.97;5091592;28;20323;-84
2022/12/08 06:47:05;;;;;;;22.97;12.53;;;;;;;-1.25;100.00;97604.09;5091725;28;20225;-77
2022/12/08 06:49:31;;;;;;;22.23;11.90;;;;;;;-1.22;100.00;97604.03;5091160;28;20252;-76
2022/12/08 06:51:58;;;;;;;17.30;10.53;;;;;;;-1.23;100.00;97597.16;5091254;28;20206;-76
2022/12/08 06:54:24;;;;;;;21.37;11.30;;;;;;;-1.20;100.00;97603.06;5091076;28;20321;-79
2022/12/08 06:56:51;;;;;;;19.27;12.03;;;;;;;-1.18;100.00;97605.63;5091621;28;20233;-78
2022/12/08 06:59:18;;;;;;;19.03;11.43;;;;;;;-1.17;100.00;97608.16;5091213;28;20566;-77
2022/12/08 07:01:46;;;;;;;18.50;12.10;;;;;;;-1.15;100.00;97605.50;5091122;28;20749;-78
2022/12/08 07:04:12;;;;;;;22.07;11.67;;;;;;;-1.16;100.00;97614.19;5092203;28;20217;-78
2022/12/08 07:06:39;;;;;;;16.73;10.37;;;;;;;-1.24;100.00;97617.03;5095014;28;20260;-78
2022/12/08 07:09:06;;;;;;;19.37;11.40;;;;;;;-1.27;100.00;97600.72;5095223;28;20210;-78
2022/12/08 07:11:32;;;;;;;17.30;10.60;;;;;;;-1.27;100.00;97611.94;5095397;28;20609;-78
2022/12/08 07:13:59;;;;;;;19.03;10.13;;;;;;;-1.30;100.00;97613.78;5095506;28;20241;-78
2022/12/08 07:16:25;;;;;;;18.77;12.13;;;;;;;-1.27;100.00;97611.94;5095043;28;20229;-78
2022/12/08 07:18:53;;;;;;;19.87;12.20;;;;;;;-1.27;100.00;97605.91;5094903;28;20210;-78
2022/12/08 07:21:20;;;;;;;20.07;11.57;;;;;;;-1.24;100.00;97616.19;5095260;28;20217;-78
2022/12/08 07:23:49;;;;;;;20.13;12.87;;;;;;;-1.22;100.00;97606.59;5095006;28;20207;-78
2022/12/08 07:26:16;;;;;;;17.77;10.07;;;;;;;-1.28;100.00;97614.56;5094857;28;20227;-78
2022/12/08 07:28:42;;;;;;;20.00;10.80;;;;;;;-1.24;100.00;97601.47;5094540;28;20209;-78
2022/12/08 07:31:17;;;;;;;18.00;11.43;;;;;;;-1.25;100.00;97610.13;5094775;28;20217;-78
2022/12/08 07:33:44;;;;;;;17.90;11.53;;;;;;;-1.24;100.00;97608.41;5094694;28;20318;-77
2022/12/08 07:36:12;;;;;;;19.40;11.80;;;;;;;-1.21;100.00;97613.47;5094842;28;20226;-76
2022/12/08 07:38:38;;;;;;;16.57;10.70;;;;;;;-1.28;100.00;97610.25;5094569;28;20220;-76
2022/12/08 07:41:05;;;;;;;18.40;11.73;;;;;;;-1.22;100.00;97610.03;5094278;28;20207;-77
2022/12/08 07:43:32;;;;;;;18.73;11.13;;;;;;;-1.26;100.00;97615.38;5094493;28;20217;-76
2022/12/08 07:45:58;;;;;;;17.80;10.03;;;;;;;-1.27;100.00;97611.09;5094475;28;20229;-76
2022/12/08 07:48:25;;;;;;;18.23;10.43;;;;;;;-1.25;100.00;97611.88;5094271;28;20590;-75
2022/12/08 07:50:51;;;;;;;16.90;10.87;;;;;;;-1.28;100.00;97609.41;5094391;28;20217;-76
2022/12/08 07:53:19;;;;;;;19.33;12.03;;;;;;;-1.26;100.00;97617.97;5094496;28;20230;-76
2022/12/08 07:55:46;;;;;;;19.03;12.40;;;;;;;-1.25;100.00;97614.47;5094412;28;20207;-76
2022/12/08 07:58:12;;;;;;;17.83;10.60;;;;;;;-1.20;100.00;97610.00;5094320;28;20210;-76
2022/12/08 08:00:39;;;;;;;19.40;11.70;;;;;;;-1.18;100.00;97605.63;5094175;28;20205;-76
2022/12/08 08:03:07;;;;;;;20.80;11.53;;;;;;;-1.14;100.00;97597.69;5094192;28;20706;-76
2022/12/08 08:05:34;;;;;;;20.93;12.13;;;;;;;-1.12;100.00;97595.06;5094103;28;20217;-76
2022/12/08 08:08:00;;;;;;;22.40;11.33;;;;;;;-1.10;100.00;97588.91;5094160;28;20222;-76
2022/12/08 08:10:28;;;;;;;19.57;11.77;;;;;;;-1.07;100.00;97593.16;5093941;28;20674;-76
2022/12/08 08:12:58;;;;;;;19.50;11.77;;;;;;;-1.02;100.00;97592.13;5094051;28;20214;-76
2022/12/08 08:15:24;;;;;;;21.13;11.87;;;;;;;-0.96;100.00;97591.94;5093584;28;20213;-75
2022/12/08 08:17:51;;;;;;;26.13;13.70;;;;;;;-0.82;100.00;97586.25;5093583;28;20231;-76
2022/12/08 08:20:19;;;;;;;21.97;12.43;;;;;;;-0.83;100.00;97592.34;5093521;28;20676;-75
2022/12/08 08:22:46;;;;;;;22.77;12.20;;;;;;;-0.82;100.00;97581.06;5094112;28;20210;-76
2022/12/08 08:25:13;;;;;;;18.77;11.47;;;;;;;-0.80;100.00;97581.88;5093850;28;20203;-78
2022/12/08 08:27:41;;;;;;;18.73;10.93;;;;;;;-0.77;100.00;97587.81;5091618;28;20336;-76
2022/12/08 08:30:11;;;;;;;20.73;11.97;;;;;;;-0.74;100.00;97592.06;5091078;28;20290;-76
2022/12/08 08:32:38;;;;;;;17.90;11.50;;;;;;;-0.70;100.00;97583.25;5091546;28;20214;-76
2022/12/08 08:35:05;;;;;;;17.83;11.77;;;;;;;-0.67;100.00;97586.63;5092550;28;20230;-77
2022/12/08 08:37:32;;;;;;;19.00;12.90;;;;;;;-0.63;100.00;97587.38;5082264;28;20233;-76
2022/12/08 08:39:58;;;;;;;21.53;13.30;;;;;;;-0.63;100.00;97583.00;5073490;28;20247;-76
2022/12/08 08:42:25;;;;;;;18.77;12.23;;;;;;;-0.61;100.00;97588.16;5071830;28;20215;-76
2022/12/08 08:44:53;;;;;;;20.77;12.90;;;;;;;-0.50;100.00;97596.41;5072315;28;20210;-76
2022/12/08 08:47:19;;;;;;;25.03;13.30;;;;;;;-0.46;100.00;97590.22;5071652;28;20714;-75
2022/12/08 08:49:46;;;;;;;20.53;12.20;;;;;;;-0.46;100.00;97591.06;5071582;28;20207;-76
2022/12/08 08:52:12;;;;;;;23.70;13.03;;;;;;;-0.42;100.00;97595.25;5072082;28;20215;-75
2022/12/08 08:54:39;;;;;;;17.07;11.60;;;;;;;-0.35;100.00;97590.69;5071666;28;20231;-75
2022/12/08 08:57:05;;;;;;;19.80;12.23;;;;;;;-0.31;100.00;97592.28;5071505;28;20235;-75
2022/12/08 08:59:32;;;;;;;20.70;11.43;;;;;;;-0.27;100.00;97584.31;5071314;28;20783;-75
2022/12/08 09:02:00;;;;;;;21.30;12.97;;;;;;;-0.17;100.00;97579.66;5071645;28;20353;-75
2022/12/08 09:04:26;;;;;;;18.70;11.70;;;;;;;-0.17;100.00;97578.75;5071154;28;20578;-76
2022/12/08 09:06:53;;;;;;;19.10;12.83;;;;;;;-0.14;100.00;97585.59;5071132;28;20255;-74
2022/12/08 09:09:19;;;;;;;19.73;12.27;;;;;;;-0.14;100.00;97587.34;5071056;28;20211;-75
2022/12/08 09:11:46;;;;;;;17.30;11.03;;;;;;;-0.08;100.00;97576.75;5071430;28;20238;-76
2022/12/08 09:14:13;;;;;;;18.60;12.37;;;;;;;0.06;100.00;97586.56;5071590;28;20230;-75
2022/12/08 09:16:40;;;;;;;17.57;11.53;;;;;;;0.04;100.00;97575.38;5070977;28;20223;-76
2022/12/08 09:19:08;;;;;;;17.87;12.00;;;;;;;0.02;100.00;97574.56;5071092;28;20212;-75
2022/12/08 09:21:34;;;;;;;18.93;12.97;;;;;;;0.12;100.00;97577.69;5071394;28;20349;-75
2022/12/08 09:24:01;;;;;;;24.47;13.80;;;;;;;0.29;100.00;97570.13;5071108;28;20210;-75
2022/12/08 09:26:28;;;;;;;23.57;12.73;;;;;;;0.36;100.00;97567.22;5071141;28;20776;-75
2022/12/08 09:28:56;;;;;;;17.20;12.13;;;;;;;0.46;100.00;97565.13;5070698;28;20208;-76
2022/12/08 09:31:24;;;;;;;20.47;11.80;;;;;;;0.39;100.00;97561.91;5072375;28;20210;-75
2022/12/08 09:33:51;;;;;;;17.57;11.47;;;;;;;0.41;100.00;97567.91;5072230;28;20258;-75
2022/12/08 09:36:19;;;;;;;19.57;12.63;;;;;;;0.48;100.00;97577.16;5072068;28;20226;-75
2022/12/08 09:38:46;;;;;;;16.33;11.40;;;;;;;0.61;100.00;97573.19;5071853;28;20221;-75
2022/12/08 09:41:16;;;;;;;19.03;11.63;;;;;;;0.67;100.00;97566.88;5071998;28;20208;-75
2022/12/08 09:43:58;;;;;;;18.03;10.87;;;;;;;0.71;100.00;97569.31;5072230;28;20199;-75
2022/12/08 09:46:28;;;;;;;18.00;10.97;;;;;;;0.80;100.00;97558.53;5072034;28;20238;-75
2022/12/08 09:48:58;;;;;;;15.67;11.10;;;;;;;0.80;100.00;97558.53;5071654;28;20207;-75
2022/12/08 09:51:30;;;;;;;18.20;11.23;;;;;;;0.68;100.00;97558.19;5071727;28;20695;-75
2022/12/08 09:54:01;;;;;;;16.83;11.07;;;;;;;0.58;100.00;97551.66;5071931;28;20234;-76
2022/12/08 09:56:34;;;;;;;17.27;10.47;;;;;;;0.54;100.00;97550.06;5071725;28;20232;-76
2022/12/08 09:59:05;;;;;;;16.23;11.17;;;;;;;0.55;100.00;97551.78;5071621;28;20264;-76
2022/12/08 10:01:37;;;;;;;18.20;10.67;;;;;;;0.54;100.00;97544.88;5071547;28;20211;-76
2022/12/08 10:04:04;;;;;;;15.33;10.70;;;;;;;0.55;100.00;97539.63;5071537;28;20708;-75
2022/12/08 10:06:38;;;;;;;14.10;9.80;;;;;;;0.58;100.00;97536.91;5071256;28;20261;-76
2022/12/08 10:09:16;;;;;;;16.87;11.00;;;;;;;0.60;100.00;97545.50;5071397;28;20208;-75
2022/12/08 10:11:51;;;;;;;13.97;9.93;;;;;;;0.63;100.00;97545.34;5071665;28;20203;-75
2022/12/08 10:14:25;;;;;;;14.80;9.83;;;;;;;0.67;100.00;97531.34;5071673;28;20238;-76
2022/12/08 10:16:59;;;;;;;15.47;9.97;;;;;;;0.66;100.00;97529.66;5071491;28;20322;-75
2022/12/08 10:19:27;;;;;;;15.40;10.30;;;;;;;0.76;100.00;97530.13;5071167;28;20214;-75
2022/12/08 10:21:57;;;;;;;14.43;9.77;;;;;;;0.84;100.00;97523.72;5071135;28;20203;-75
2022/12/08 10:24:31;;;;;;;20.37;10.73;;;;;;;1.07;100.00;97518.41;5071252;28;20218;-75
2022/12/08 10:26:58;;;;;;;15.60;9.47;;;;;;;1.12;100.00;97513.84;5071257;28;20219;-75
2022/12/08 10:29:25;;;;;;;14.50;10.33;;;;;;;1.33;100.00;97515.56;5071219;28;20595;-75
2022/12/08 10:31:52;;;;;;;16.37;10.90;;;;;;;1.51;100.00;97517.38;5071005;28;20211;-75
2022/12/08 10:34:21;;;;;;;18.20;10.63;;;;;;;1.72;100.00;97526.00;5071314;28;20237;-75
2022/12/08 10:36:50;;;;;;;16.77;10.57;;;;;;;1.90;100.00;97510.41;5070980;28;20598;-75
2022/12/08 10:39:36;;;;;;;16.40;10.43;;;;;;;2.13;100.00;97507.59;5071280;28;20299;-75
2022/12/08 10:42:08;;;;;;;17.10;10.70;;;;;;;2.28;100.00;97512.09;5071443;28;20211;-74
2022/12/08 10:44:46;;;;;;;16.90;10.57;;;;;;;2.39;100.00;97502.00;5072837;28;20230;-75
2022/12/08 10:47:14;;;;;;;13.43;9.83;;;;;;;2.56;100.00;97503.84;5072294;28;20714;-75
2022/12/08 10:49:40;;;;;;;12.47;9.97;;;;;;;2.64;100.00;97499.94;5074889;28;20207;-75
2022/12/08 10:52:21;;;;;;;14.83;9.33;;;;;;;2.73;100.00;97496.88;5075989;28;20207;-76
2022/12/08 10:54:52;;;;;;;14.13;9.03;;;;;;;2.84;100.00;97497.22;5070833;28;20234;-76
2022/12/08 10:57:21;;;;;;;15.50;9.17;;;;;;;2.89;100.00;97490.00;5077559;28;20227;-76
2022/12/08 10:59:49;;;;;;;14.47;9.57;;;;;;;2.96;100.00;97490.53;5089982;28;20705;-76
2022/12/08 11:02:20;;;;;;;12.67;9.07;;;;;;;3.03;100.00;97481.50;5090552;28;20213;-76
2022/12/08 11:04:47;;;;;;;14.03;8.90;;;;;;;3.06;100.00;97471.72;5090571;28;20258;-76
2022/12/08 11:07:21;;;;;;;12.30;8.50;;;;;;;3.13;100.00;97474.91;5102906;22;20231;-82
2022/12/08 11:09:56;;;;;;;13.60;8.90;;;;;;;3.20;100.00;97463.22;5083256;28;20216;-81
2022/12/08 11:12:26;;;;;;;10.83;8.63;;;;;;;3.26;100.00;97457.69;5090351;28;20209;-82
2022/12/08 11:14:57;;;;;;;13.37;8.97;;;;;;;3.34;100.00;97463.34;5090354;28;20227;-82
2022/12/08 11:17:26;;;;;;;13.07;8.27;;;;;;;3.34;100.00;97451.16;5078155;28;20228;-82
2022/12/08 11:19:59;;;;;;;13.70;8.20;;;;;;;3.32;100.00;97446.94;5069980;28;20208;-82
2022/12/08 11:22:29;;;;;;;10.60;7.63;;;;;;;3.38;100.00;97439.63;5070236;28;20343;-82
2022/12/08 11:25:03;;;;;;;14.17;8.43;;;;;;;3.41;100.00;97434.25;5069819;28;20214;-82
2022/12/08 11:27:30;;;;;;;9.03;7.03;;;;;;;3.43;100.00;97442.81;5070076;28;20579;-82
2022/12/08 11:29:56;;;;;;;10.43;7.43;;;;;;;3.46;100.00;97434.84;5069615;28;20203;-84